createdAt,value
2019-02-11T00:00:32.335Z,992.58
2019-02-11T00:02:25.284Z,992.62
2019-02-11T00:03:25.314Z,992.70
2019-02-11T00:05:18.264Z,992.68
2019-02-11T00:06:18.288Z,992.79
2019-02-11T00:08:11.230Z,992.85
2019-02-11T00:09:11.258Z,992.86
2019-02-11T00:11:04.216Z,992.96
2019-02-11T00:12:04.236Z,992.95
2019-02-11T00:13:57.316Z,993.02
2019-02-11T00:14:57.210Z,993.04
2019-02-11T00:16:50.647Z,993.14
2019-02-11T00:17:50.675Z,993.19
2019-02-11T00:19:43.635Z,993.22
2019-02-11T00:20:43.650Z,993.32
2019-02-11T00:22:36.596Z,993.43
2019-02-11T00:23:36.626Z,993.35
2019-02-11T00:25:29.577Z,993.45
2019-02-11T00:26:29.600Z,993.48
2019-02-11T00:28:22.549Z,993.57
2019-02-11T00:29:22.577Z,993.57
2019-02-11T00:31:15.559Z,993.67
2019-02-11T00:32:15.556Z,993.70
2019-02-11T00:34:08.508Z,993.73
2019-02-11T00:35:08.534Z,993.82
2019-02-11T00:37:01.474Z,993.92
2019-02-11T00:38:01.509Z,993.91
2019-02-11T00:39:54.457Z,993.93
2019-02-11T00:40:54.476Z,994.03
2019-02-11T00:42:47.427Z,994.10
2019-02-11T00:43:47.467Z,994.15
2019-02-11T00:45:40.416Z,994.22
2019-02-11T00:46:40.437Z,994.21
2019-02-11T00:48:33.382Z,994.34
2019-02-11T00:49:33.406Z,994.40
2019-02-11T00:51:26.851Z,994.44
2019-02-11T00:52:26.871Z,994.47
2019-02-11T00:54:20.357Z,994.51
2019-02-11T00:55:20.335Z,994.51
2019-02-11T00:57:13.289Z,994.60
2019-02-11T00:58:13.307Z,994.60
2019-02-11T01:00:06.264Z,994.68
2019-02-11T01:01:06.283Z,994.74
2019-02-11T01:02:59.230Z,994.74
2019-02-11T01:03:59.258Z,994.74
2019-02-11T01:05:52.216Z,994.76
2019-02-11T01:06:52.233Z,994.79
2019-02-11T01:08:45.670Z,994.88
2019-02-11T01:09:45.698Z,994.91
2019-02-11T01:11:38.649Z,994.87
2019-02-11T01:12:38.672Z,994.91
2019-02-11T01:14:31.615Z,995.01
2019-02-11T01:15:31.643Z,995.04
2019-02-11T01:17:24.596Z,995.07
2019-02-11T01:18:24.618Z,995.11
2019-02-11T01:20:17.574Z,995.16
2019-02-11T01:21:17.591Z,995.15
2019-02-11T01:23:10.533Z,995.17
2019-02-11T01:24:10.564Z,995.27
2019-02-11T01:26:04.018Z,995.23
2019-02-11T01:27:04.038Z,995.28
2019-02-11T01:28:56.985Z,995.37
2019-02-11T01:29:57.011Z,995.35
2019-02-11T01:31:49.968Z,995.46
2019-02-11T01:32:49.989Z,995.44
2019-02-11T01:34:42.932Z,995.53
2019-02-11T01:35:42.963Z,995.56
2019-02-11T01:37:35.915Z,995.61
2019-02-11T01:38:35.936Z,995.63
2019-02-11T01:40:28.907Z,995.67
2019-02-11T01:41:28.912Z,995.67
2019-02-11T01:43:21.861Z,995.74
2019-02-11T01:44:21.883Z,995.77
2019-02-11T01:46:14.847Z,995.83
2019-02-11T01:47:14.856Z,995.77
2019-02-11T01:49:07.809Z,995.86
2019-02-11T01:50:07.833Z,996.00
2019-02-11T01:52:00.788Z,995.93
2019-02-11T01:53:00.807Z,995.95
2019-02-11T01:54:53.755Z,995.99
2019-02-11T01:55:53.782Z,995.96
2019-02-11T01:57:46.740Z,996.05
2019-02-11T01:58:46.760Z,996.08
2019-02-11T02:00:39.706Z,996.05
2019-02-11T02:01:39.733Z,996.10
2019-02-11T02:03:32.689Z,996.12
2019-02-11T02:04:32.708Z,996.08
2019-02-11T02:06:25.661Z,996.12
2019-02-11T02:07:25.677Z,996.12
2019-02-11T02:09:19.115Z,996.18
2019-02-11T02:10:19.141Z,996.13
2019-02-11T02:12:12.098Z,996.24
2019-02-11T02:13:12.114Z,996.22
2019-02-11T02:15:05.061Z,996.27
2019-02-11T02:16:05.089Z,996.23
2019-02-11T02:17:58.042Z,996.29
2019-02-11T02:18:58.063Z,996.39
2019-02-11T02:20:51.006Z,996.40
2019-02-11T02:21:51.032Z,996.37
2019-02-11T02:23:43.989Z,996.37
2019-02-11T02:24:44.008Z,996.42
2019-02-11T02:26:36.997Z,996.47
2019-02-11T02:27:36.987Z,996.52
2019-02-11T02:29:29.926Z,996.54
2019-02-11T02:30:29.959Z,996.57
2019-02-11T02:32:22.906Z,996.59
2019-02-11T02:33:22.933Z,996.65
2019-02-11T02:35:16.364Z,996.70
2019-02-11T02:36:16.392Z,996.65
2019-02-11T02:38:09.349Z,996.78
2019-02-11T02:39:09.367Z,996.76
2019-02-11T02:41:02.310Z,996.83
2019-02-11T02:42:02.337Z,996.85
2019-02-11T02:43:55.992Z,996.83
2019-02-11T02:44:55.313Z,996.85
2019-02-11T02:46:48.249Z,996.92
2019-02-11T02:47:48.291Z,996.98
2019-02-11T02:49:41.234Z,996.98
2019-02-11T02:50:41.253Z,997.05
2019-02-11T02:52:34.231Z,997.07
2019-02-11T02:53:34.250Z,997.07
2019-02-11T02:55:27.190Z,997.11
2019-02-11T02:56:27.218Z,997.08
2019-02-11T02:58:20.676Z,997.16
2019-02-11T02:59:20.699Z,997.15
2019-02-11T03:01:13.644Z,997.24
2019-02-11T03:02:13.678Z,997.25
2019-02-11T03:04:06.622Z,997.27
2019-02-11T03:05:06.643Z,997.27
2019-02-11T03:06:59.587Z,997.29
2019-02-11T03:07:59.616Z,997.28
2019-02-11T03:09:52.576Z,997.36
2019-02-11T03:10:52.593Z,997.35
2019-02-11T03:12:45.540Z,997.52
2019-02-11T03:13:45.569Z,997.43
2019-02-11T03:15:38.508Z,997.48
2019-02-11T03:16:38.537Z,997.42
2019-02-11T03:18:31.495Z,997.44
2019-02-11T03:19:31.523Z,997.53
2019-02-11T03:21:24.463Z,997.53
2019-02-11T03:22:24.495Z,997.60
2019-02-11T03:24:17.936Z,997.62
2019-02-11T03:25:17.956Z,997.68
2019-02-11T03:27:10.899Z,997.69
2019-02-11T03:28:10.941Z,997.73
2019-02-11T03:30:03.882Z,997.69
2019-02-11T03:31:03.902Z,997.75
2019-02-11T03:32:56.860Z,997.79
2019-02-11T03:33:56.883Z,997.79
2019-02-11T03:35:49.828Z,997.82
2019-02-11T03:36:49.858Z,997.82
2019-02-11T03:38:42.813Z,997.85
2019-02-11T03:39:42.828Z,997.90
2019-02-11T03:41:35.774Z,997.98
2019-02-11T03:42:35.806Z,998.00
2019-02-11T03:44:28.759Z,998.02
2019-02-11T03:45:28.775Z,998.06
2019-02-11T03:47:23.217Z,998.08
2019-02-11T03:48:23.242Z,998.12
2019-02-11T03:50:16.193Z,998.19
2019-02-11T03:51:16.228Z,998.15
2019-02-11T03:53:09.167Z,998.20
2019-02-11T03:54:09.188Z,998.26
2019-02-11T03:56:02.144Z,998.25
2019-02-11T03:57:02.164Z,998.33
2019-02-11T03:58:55.117Z,998.37
2019-02-11T03:59:55.136Z,998.43
2019-02-11T04:01:48.084Z,998.50
2019-02-11T04:02:48.110Z,998.54
2019-02-11T04:04:41.064Z,998.50
2019-02-11T04:05:41.086Z,998.55
2019-02-11T04:07:34.520Z,998.59
2019-02-11T04:08:34.549Z,998.63
2019-02-11T04:10:27.509Z,998.75
2019-02-11T04:11:27.521Z,998.70
2019-02-11T04:13:20.476Z,998.85
2019-02-11T04:14:24.881Z,998.82
2019-02-11T04:16:13.440Z,998.79
2019-02-11T04:17:13.469Z,998.77
2019-02-11T04:19:06.922Z,998.73
2019-02-11T04:20:06.946Z,998.88
2019-02-11T04:21:59.886Z,998.93
2019-02-11T04:22:59.917Z,998.92
2019-02-11T04:24:52.870Z,999.00
2019-02-11T04:25:52.890Z,999.00
2019-02-11T04:27:45.834Z,999.05
2019-02-11T04:28:45.865Z,999.10
2019-02-11T04:30:38.811Z,999.03
2019-02-11T04:31:38.835Z,999.10
2019-02-11T04:33:31.788Z,999.17
2019-02-11T04:34:31.817Z,999.16
2019-02-11T04:36:24.758Z,999.23
2019-02-11T04:37:24.783Z,999.28
2019-02-11T04:39:18.225Z,999.26
2019-02-11T04:40:18.242Z,999.33
2019-02-11T04:42:11.186Z,999.33
2019-02-11T04:43:11.213Z,999.44
2019-02-11T04:45:04.657Z,999.43
2019-02-11T04:46:04.677Z,999.44
2019-02-11T04:47:57.618Z,999.44
2019-02-11T04:48:57.647Z,999.50
2019-02-11T04:50:51.099Z,999.50
2019-02-11T04:51:51.125Z,999.43
2019-02-11T04:53:44.080Z,999.53
2019-02-11T04:54:44.097Z,999.58
2019-02-11T04:56:37.048Z,999.67
2019-02-11T04:57:37.068Z,999.65
2019-02-11T04:59:30.027Z,999.66
2019-02-11T05:00:30.040Z,999.66
2019-02-11T05:02:22.980Z,999.71
2019-02-11T05:03:23.008Z,999.65
2019-02-11T05:05:15.962Z,999.78
2019-02-11T05:06:15.983Z,999.78
2019-02-11T05:08:09.418Z,999.75
2019-02-11T05:09:09.443Z,999.84
2019-02-11T05:11:02.396Z,999.84
2019-02-11T05:12:02.425Z,999.78
2019-02-11T05:13:55.360Z,999.88
2019-02-11T05:14:55.390Z,999.94
2019-02-11T05:16:48.344Z,999.91
2019-02-11T05:17:48.360Z,999.81
2019-02-11T05:19:41.310Z,999.96
2019-02-11T05:20:41.357Z,999.96
2019-02-11T05:22:34.777Z,1000.02
2019-02-11T05:23:34.806Z,999.94
2019-02-11T05:25:27.769Z,999.97
2019-02-11T05:26:27.782Z,1000.07
2019-02-11T05:28:20.723Z,1000.05
2019-02-11T05:29:20.751Z,1000.05
2019-02-11T05:31:13.705Z,1000.09
2019-02-11T05:32:13.725Z,1000.04
2019-02-11T05:34:07.159Z,1000.08
2019-02-11T05:35:07.187Z,1000.05
2019-02-11T05:37:00.628Z,1000.08
2019-02-11T05:38:00.648Z,1000.10
2019-02-11T05:39:53.604Z,1000.07
2019-02-11T05:40:53.622Z,1000.15
2019-02-11T05:42:46.568Z,1000.13
2019-02-11T05:43:46.595Z,1000.18
2019-02-11T05:45:40.050Z,1000.24
2019-02-11T05:46:40.069Z,1000.22
2019-02-11T05:48:33.510Z,1000.22
2019-02-11T05:49:33.534Z,1000.25
2019-02-11T05:51:26.484Z,1000.31
2019-02-11T05:52:26.507Z,1000.30
2019-02-11T05:54:19.941Z,1000.33
2019-02-11T05:55:19.968Z,1000.31
2019-02-11T05:57:13.419Z,1000.34
2019-02-11T05:58:13.442Z,1000.31
2019-02-11T06:00:06.412Z,1000.34
2019-02-11T06:01:06.411Z,1000.40
2019-02-11T06:02:59.358Z,1000.48
2019-02-11T06:03:59.387Z,1000.46
2019-02-11T06:05:52.342Z,1000.52
2019-02-11T06:06:52.359Z,1000.55
2019-02-11T06:08:45.818Z,1000.56
2019-02-11T06:09:45.823Z,1000.58
2019-02-11T06:11:38.777Z,1000.65
2019-02-11T06:12:38.791Z,1000.72
2019-02-11T06:14:31.742Z,1000.64
2019-02-11T06:15:31.769Z,1000.70
2019-02-11T06:17:24.722Z,1000.67
2019-02-11T06:18:24.740Z,1000.78
2019-02-11T06:20:17.693Z,1000.85
2019-02-11T06:21:17.712Z,1000.83
2019-02-11T06:23:10.661Z,1000.83
2019-02-11T06:24:10.686Z,1000.81
2019-02-11T06:26:03.642Z,1000.89
2019-02-11T06:27:03.662Z,1000.87
2019-02-11T06:28:56.611Z,1001.04
2019-02-11T06:29:56.638Z,1000.95
2019-02-11T06:31:49.596Z,1001.11
2019-02-11T06:32:49.617Z,1001.13
2019-02-11T06:34:42.561Z,1001.25
2019-02-11T06:35:42.630Z,1001.21
2019-02-11T06:37:35.539Z,1001.19
2019-02-11T06:38:35.562Z,1001.30
2019-02-11T06:40:28.542Z,1001.17
2019-02-11T06:41:28.533Z,1001.31
2019-02-11T06:43:21.477Z,1001.35
2019-02-11T06:44:21.506Z,1001.36
2019-02-11T06:46:14.463Z,1001.43
2019-02-11T06:47:14.483Z,1001.43
2019-02-11T06:49:07.425Z,1001.42
2019-02-11T06:50:07.454Z,1001.54
2019-02-11T06:52:00.907Z,1001.48
2019-02-11T06:53:00.928Z,1001.40
2019-02-11T06:54:53.871Z,1001.50
2019-02-11T06:55:53.901Z,1001.60
2019-02-11T06:57:46.853Z,1001.58
2019-02-11T06:58:46.870Z,1001.61
2019-02-11T07:00:39.815Z,1001.72
2019-02-11T07:01:39.844Z,1001.62
2019-02-11T07:03:32.794Z,1001.65
2019-02-11T07:04:32.814Z,1001.69
2019-02-11T07:06:25.766Z,1001.82
2019-02-11T07:07:25.790Z,1001.89
2019-02-11T07:09:18.740Z,1001.84
2019-02-11T07:10:18.763Z,1001.87
2019-02-11T07:12:11.716Z,1001.92
2019-02-11T07:13:11.736Z,1001.94
2019-02-11T07:15:04.684Z,1001.93
2019-02-11T07:16:04.706Z,1002.02
2019-02-11T07:17:57.664Z,1001.97
2019-02-11T07:18:57.683Z,1002.08
2019-02-11T07:20:50.625Z,1002.18
2019-02-11T07:21:50.653Z,1002.13
2019-02-11T07:23:43.610Z,1002.30
2019-02-11T07:24:43.632Z,1002.36
2019-02-11T07:26:36.587Z,1002.36
2019-02-11T07:27:36.611Z,1002.33
2019-02-11T07:29:29.553Z,1002.39
2019-02-11T07:30:29.585Z,1002.44
2019-02-11T07:32:23.038Z,1002.44
2019-02-11T07:33:23.062Z,1002.51
2019-02-11T07:35:16.007Z,1002.71
2019-02-11T07:36:17.915Z,1002.57
2019-02-11T07:38:09.481Z,1002.66
2019-02-11T07:39:09.498Z,1002.69
2019-02-11T07:41:02.446Z,1002.76
2019-02-11T07:42:02.470Z,1002.79
2019-02-11T07:43:55.431Z,1002.89
2019-02-11T07:44:55.450Z,1002.84
2019-02-11T07:46:48.404Z,1002.89
2019-02-11T07:47:48.424Z,1002.90
2019-02-11T07:49:41.370Z,1002.92
2019-02-11T07:50:41.398Z,1002.97
2019-02-11T07:52:34.350Z,1002.99
2019-02-11T07:53:34.370Z,1003.04
2019-02-11T07:55:27.312Z,1003.01
2019-02-11T07:56:27.344Z,1003.09
2019-02-11T07:58:20.320Z,1003.11
2019-02-11T07:59:20.317Z,1003.12
2019-02-11T08:01:13.262Z,1003.21
2019-02-11T08:02:13.290Z,1003.19
2019-02-11T08:04:06.245Z,1003.33
2019-02-11T08:05:06.263Z,1003.35
2019-02-11T08:06:59.219Z,1003.48
2019-02-11T08:07:59.237Z,1003.39
2019-02-11T08:09:52.179Z,1003.45
2019-02-11T08:10:52.209Z,1003.43
2019-02-11T08:12:45.168Z,1003.55
2019-02-11T08:13:45.189Z,1003.57
2019-02-11T08:15:38.778Z,1003.65
2019-02-11T08:16:38.162Z,1003.62
2019-02-11T08:18:31.116Z,1003.66
2019-02-11T08:19:31.135Z,1003.70
2019-02-11T08:21:24.083Z,1003.81
2019-02-11T08:22:24.111Z,1003.78
2019-02-11T08:24:17.071Z,1003.81
2019-02-11T08:25:17.086Z,1003.92
2019-02-11T08:27:10.055Z,1003.95
2019-02-11T08:28:10.062Z,1003.93
2019-02-11T08:30:03.017Z,1004.12
2019-02-11T08:31:03.035Z,1004.04
2019-02-11T08:32:55.993Z,1004.13
2019-02-11T08:33:56.010Z,1004.07
2019-02-11T08:35:48.960Z,1003.99
2019-02-11T08:36:48.988Z,1004.12
2019-02-11T08:38:41.948Z,1004.16
2019-02-11T08:39:41.968Z,1004.16
2019-02-11T08:41:34.912Z,1004.20
2019-02-11T08:42:34.942Z,1004.17
2019-02-11T08:44:27.896Z,1004.25
2019-02-11T08:45:27.915Z,1004.33
2019-02-11T08:47:20.868Z,1004.29
2019-02-11T08:48:20.897Z,1004.34
2019-02-11T08:50:13.850Z,1004.44
2019-02-11T08:51:13.878Z,1004.49
2019-02-11T08:53:06.826Z,1004.45
2019-02-11T08:54:06.848Z,1004.61
2019-02-11T08:55:59.793Z,1004.40
2019-02-11T08:56:59.820Z,1004.54
2019-02-11T08:58:52.777Z,1004.52
2019-02-11T08:59:52.800Z,1004.69
2019-02-11T09:01:45.752Z,1004.66
2019-02-11T09:02:45.781Z,1004.74
2019-02-11T09:04:38.731Z,1004.72
2019-02-11T09:05:38.754Z,1004.71
2019-02-11T09:07:31.700Z,1004.71
2019-02-11T09:08:31.730Z,1004.73
2019-02-11T09:10:24.682Z,1004.82
2019-02-11T09:11:24.703Z,1004.80
2019-02-11T09:13:17.662Z,1004.85
2019-02-11T09:14:17.685Z,1004.84
2019-02-11T09:16:11.130Z,1004.85
2019-02-11T09:17:11.168Z,1004.90
2019-02-11T09:19:04.108Z,1004.90
2019-02-11T09:20:04.133Z,1004.91
2019-02-11T09:21:57.076Z,1005.00
2019-02-11T09:22:57.107Z,1005.00
2019-02-11T09:24:50.063Z,1005.03
2019-02-11T09:25:50.083Z,1005.08
2019-02-11T09:27:43.520Z,1005.02
2019-02-11T09:28:43.548Z,1005.18
2019-02-11T09:30:36.503Z,1005.12
2019-02-11T09:31:36.523Z,1005.13
2019-02-11T09:33:29.478Z,1005.09
2019-02-11T09:34:29.497Z,1005.29
2019-02-11T09:36:22.442Z,1005.20
2019-02-11T09:37:22.473Z,1005.30
2019-02-11T09:39:15.423Z,1005.27
2019-02-11T09:40:15.446Z,1005.29
2019-02-11T09:42:08.394Z,1005.47
2019-02-11T09:43:08.425Z,1005.35
2019-02-11T09:45:01.378Z,1005.46
2019-02-11T09:46:04.036Z,1005.41
2019-02-11T09:47:54.345Z,1005.48
2019-02-11T09:48:54.374Z,1005.49
2019-02-11T09:50:47.334Z,1005.57
2019-02-11T09:51:47.347Z,1005.61
2019-02-11T09:53:40.289Z,1005.64
2019-02-11T09:54:40.379Z,1005.71
2019-02-11T09:56:33.276Z,1005.82
2019-02-11T09:57:33.298Z,1005.70
2019-02-11T09:59:26.248Z,1005.82
2019-02-11T10:00:26.275Z,1005.81
2019-02-11T10:02:19.221Z,1005.89
2019-02-11T10:03:19.250Z,1005.85
2019-02-11T10:05:12.703Z,1005.94
2019-02-11T10:06:12.725Z,1005.93
2019-02-11T10:08:05.668Z,1006.01
2019-02-11T10:09:05.697Z,1006.09
2019-02-11T10:10:58.652Z,1006.14
2019-02-11T10:11:58.673Z,1006.07
2019-02-11T10:13:51.618Z,1006.15
2019-02-11T10:14:51.647Z,1006.28
2019-02-11T10:16:44.602Z,1006.32
2019-02-11T10:17:44.623Z,1006.26
2019-02-11T10:19:37.578Z,1006.35
2019-02-11T10:20:37.596Z,1006.32
2019-02-11T10:22:30.541Z,1006.43
2019-02-11T10:23:30.571Z,1006.46
2019-02-11T10:25:24.023Z,1006.51
2019-02-11T10:26:24.052Z,1006.55
2019-02-11T10:28:16.993Z,1006.52
2019-02-11T10:29:17.023Z,1006.57
2019-02-11T10:31:10.478Z,1006.61
2019-02-11T10:32:10.503Z,1006.62
2019-02-11T10:34:03.444Z,1006.50
2019-02-11T10:35:03.474Z,1006.67
2019-02-11T10:36:56.431Z,1006.69
2019-02-11T10:37:56.454Z,1006.67
2019-02-11T10:39:49.404Z,1006.63
2019-02-11T10:40:49.429Z,1006.70
2019-02-11T10:42:42.397Z,1006.74
2019-02-11T10:43:42.408Z,1006.77
2019-02-11T10:45:36.853Z,1006.80
2019-02-11T10:46:35.378Z,1006.84
2019-02-11T10:48:28.321Z,1006.94
2019-02-11T10:49:28.352Z,1006.89
2019-02-11T10:51:21.309Z,1007.02
2019-02-11T10:52:21.331Z,1006.99
2019-02-11T10:54:14.275Z,1006.91
2019-02-11T10:55:14.306Z,1006.92
2019-02-11T10:57:07.750Z,1007.05
2019-02-11T10:58:07.772Z,1007.08
2019-02-11T11:00:00.717Z,1007.09
2019-02-11T11:01:00.745Z,1007.22
2019-02-11T11:02:53.700Z,1007.19
2019-02-11T11:03:53.732Z,1007.17
2019-02-11T11:05:46.678Z,1007.13
2019-02-11T11:06:46.698Z,1007.23
2019-02-11T11:08:39.648Z,1007.30
2019-02-11T11:09:39.677Z,1007.45
2019-02-11T11:11:32.633Z,1007.44
2019-02-11T11:12:32.657Z,1007.36
2019-02-11T11:14:25.604Z,1007.48
2019-02-11T11:15:25.632Z,1007.48
2019-02-11T11:17:18.586Z,1007.53
2019-02-11T11:18:18.608Z,1007.44
2019-02-11T11:20:11.551Z,1007.54
2019-02-11T11:21:11.581Z,1007.60
2019-02-11T11:23:04.536Z,1007.57
2019-02-11T11:24:04.557Z,1007.52
2019-02-11T11:25:57.530Z,1007.62
2019-02-11T11:26:57.533Z,1007.58
2019-02-11T11:28:50.481Z,1007.68
2019-02-11T11:29:50.513Z,1007.70
2019-02-11T11:31:43.464Z,1007.72
2019-02-11T11:32:43.487Z,1007.70
2019-02-11T11:34:36.433Z,1007.74
2019-02-11T11:35:36.464Z,1007.71
2019-02-11T11:37:29.416Z,1007.83
2019-02-11T11:38:29.440Z,1007.74
2019-02-11T11:40:22.384Z,1007.83
2019-02-11T11:41:22.414Z,1007.87
2019-02-11T11:43:15.370Z,1007.85
2019-02-11T11:44:15.394Z,1007.88
2019-02-11T11:46:08.346Z,1007.89
2019-02-11T11:47:08.369Z,1007.82
2019-02-11T11:49:01.324Z,1007.94
2019-02-11T11:50:01.345Z,1007.96
2019-02-11T11:51:54.788Z,1007.98
2019-02-11T11:52:54.809Z,1008.03
2019-02-11T11:54:47.756Z,1008.02
2019-02-11T11:55:47.814Z,1008.08
2019-02-11T11:57:40.746Z,1008.07
2019-02-11T11:58:40.759Z,1007.95
2019-02-11T12:00:33.708Z,1008.09
2019-02-11T12:01:33.760Z,1008.11
2019-02-11T12:03:26.695Z,1008.19
2019-02-11T12:04:26.725Z,1008.18
2019-02-11T12:06:19.693Z,1008.23
2019-02-11T12:07:19.697Z,1008.13
2019-02-11T12:09:12.653Z,1008.27
2019-02-11T12:10:12.672Z,1008.24
2019-02-11T12:12:06.114Z,1008.30
2019-02-11T12:13:21.686Z,1008.31
2019-02-11T12:14:59.082Z,1008.41
2019-02-11T12:15:59.109Z,1008.34
2019-02-11T12:17:52.069Z,1008.26
2019-02-11T12:18:52.086Z,1008.28
2019-02-11T12:20:45.029Z,1008.38
2019-02-11T12:21:45.069Z,1008.29
2019-02-11T12:23:38.018Z,1008.56
2019-02-11T12:24:38.037Z,1008.45
2019-02-11T12:26:30.987Z,1008.57
2019-02-11T12:27:31.015Z,1008.59
2019-02-11T12:29:23.966Z,1008.54
2019-02-11T12:30:24.112Z,1008.54
2019-02-11T12:32:16.943Z,1008.52
2019-02-11T12:33:16.977Z,1008.64
2019-02-11T12:35:09.915Z,1008.60
2019-02-11T12:36:09.955Z,1008.61
2019-02-11T12:38:02.908Z,1008.70
2019-02-11T12:39:02.935Z,1008.88
2019-02-11T12:40:55.870Z,1008.99
2019-02-11T12:41:55.903Z,1009.06
2019-02-11T12:43:48.854Z,1009.21
2019-02-11T12:44:48.909Z,1009.04
2019-02-11T12:46:41.825Z,1009.13
2019-02-11T12:47:41.863Z,1009.10
2019-02-11T12:49:34.812Z,1009.17
2019-02-11T12:50:34.830Z,1009.17
2019-02-11T12:52:27.785Z,1009.17
2019-02-11T12:53:27.806Z,1009.21
2019-02-11T12:55:20.754Z,1009.35
2019-02-11T12:56:20.786Z,1009.30
2019-02-11T12:58:13.741Z,1009.26
2019-02-11T12:59:13.766Z,1009.22
2019-02-11T13:01:07.311Z,1009.44
2019-02-11T13:02:07.361Z,1009.42
2019-02-11T13:04:00.804Z,1009.44
2019-02-11T13:05:00.817Z,1009.54
2019-02-11T13:06:54.269Z,1009.54
2019-02-11T13:07:54.296Z,1009.41
2019-02-11T13:09:47.748Z,1009.58
2019-02-11T13:10:47.763Z,1009.48
2019-02-11T13:12:40.726Z,1009.57
2019-02-11T13:13:40.750Z,1009.55
2019-02-11T13:15:57.638Z,1009.66
2019-02-11T13:16:33.727Z,1009.52
2019-02-11T13:18:27.461Z,1009.64
2019-02-11T13:19:27.204Z,1009.82
2019-02-11T13:21:20.149Z,1009.80
2019-02-11T13:22:20.183Z,1009.96
2019-02-11T13:24:13.135Z,1010.04
2019-02-11T13:25:13.155Z,1009.86
2019-02-11T13:27:06.106Z,1010.01
2019-02-11T13:28:06.136Z,1009.85
2019-02-11T13:29:59.093Z,1010.03
2019-02-11T13:30:59.117Z,1010.09
2019-02-11T13:32:52.059Z,1010.15
2019-02-11T13:33:52.090Z,1010.12
2019-02-11T13:35:45.049Z,1010.08
2019-02-11T13:36:45.071Z,1010.13
2019-02-11T13:38:38.025Z,1010.19
2019-02-11T13:39:38.055Z,1010.16
2019-02-11T13:41:31.005Z,1010.17
2019-02-11T13:42:31.046Z,1010.12
2019-02-11T13:44:23.990Z,1010.26
2019-02-11T13:45:24.007Z,1010.37
2019-02-11T13:47:16.960Z,1010.25
2019-02-11T13:48:16.984Z,1010.32
2019-02-11T13:50:09.949Z,1010.34
2019-02-11T13:51:09.977Z,1010.45
2019-02-11T13:53:02.935Z,1010.49
2019-02-11T13:54:02.961Z,1010.49
2019-02-11T13:55:56.404Z,1010.69
2019-02-11T13:56:56.433Z,1010.66
2019-02-11T13:58:52.200Z,1010.55
2019-02-11T13:59:49.897Z,1010.56
2019-02-11T14:01:43.334Z,1010.70
2019-02-11T14:02:43.368Z,1010.56
2019-02-11T14:04:36.323Z,1010.71
2019-02-11T14:05:36.346Z,1010.74
2019-02-11T14:07:29.794Z,1010.72
2019-02-11T14:08:29.880Z,1010.76
2019-02-11T14:10:23.268Z,1010.81
2019-02-11T14:11:23.289Z,1010.79
2019-02-11T14:13:16.242Z,1010.85
2019-02-11T14:14:16.272Z,1010.90
2019-02-11T14:16:09.252Z,1010.89
2019-02-11T14:17:09.259Z,1011.00
2019-02-11T14:19:02.261Z,1011.04
2019-02-11T14:20:02.240Z,1011.14
2019-02-11T14:21:55.691Z,1011.19
2019-02-11T14:22:55.731Z,1011.42
2019-02-11T14:24:48.691Z,1011.26
2019-02-11T14:25:48.692Z,1011.29
2019-02-11T14:27:42.147Z,1011.31
2019-02-11T14:28:42.178Z,1011.40
2019-02-11T14:30:35.632Z,1011.48
2019-02-11T14:31:35.659Z,1011.53
2019-02-11T14:33:29.098Z,1011.61
2019-02-11T14:34:29.130Z,1011.63
2019-02-11T14:36:22.595Z,1011.66
2019-02-11T14:37:22.622Z,1011.65
2019-02-11T14:39:16.081Z,1011.82
2019-02-11T14:40:16.106Z,1011.76
2019-02-11T14:42:09.542Z,1011.83
2019-02-11T14:43:09.584Z,1011.81
2019-02-11T14:45:03.033Z,1011.91
2019-02-11T14:46:03.064Z,1011.95
2019-02-11T14:47:56.504Z,1012.01
2019-02-11T14:48:56.542Z,1012.05
2019-02-11T14:50:49.975Z,1012.11
2019-02-11T14:51:50.002Z,1012.10
2019-02-11T14:53:43.460Z,1012.14
2019-02-11T14:54:43.491Z,1012.13
2019-02-11T14:56:36.949Z,1012.19
2019-02-11T14:57:36.971Z,1012.26
2019-02-11T14:59:30.440Z,1012.32
2019-02-11T15:00:30.458Z,1012.29
2019-02-11T15:02:23.896Z,1012.29
2019-02-11T15:03:23.930Z,1012.40
2019-02-11T15:05:17.379Z,1012.39
2019-02-11T15:06:17.401Z,1012.44
2019-02-11T15:08:10.846Z,1012.36
2019-02-11T15:09:10.879Z,1012.48
2019-02-11T15:11:04.326Z,1012.42
2019-02-11T15:12:04.350Z,1012.45
2019-02-11T15:13:57.826Z,1012.48
2019-02-11T15:14:57.840Z,1012.47
2019-02-11T15:16:51.290Z,1012.47
2019-02-11T15:17:51.313Z,1012.60
2019-02-11T15:19:44.770Z,1012.63
2019-02-11T15:20:44.797Z,1012.60
2019-02-11T15:22:38.259Z,1012.60
2019-02-11T15:23:38.282Z,1012.66
2019-02-11T15:25:31.752Z,1012.71
2019-02-11T15:26:31.770Z,1012.67
2019-02-11T15:28:25.208Z,1012.74
2019-02-11T15:29:25.238Z,1012.77
2019-02-11T15:31:18.691Z,1012.79
2019-02-11T15:32:18.711Z,1012.85
2019-02-11T15:34:12.161Z,1012.85
2019-02-11T15:35:12.195Z,1012.96
2019-02-11T15:37:05.641Z,1013.10
2019-02-11T15:38:05.665Z,1013.14
2019-02-11T15:39:58.621Z,1013.21
2019-02-11T15:40:58.693Z,1013.16
2019-02-11T15:42:52.108Z,1013.31
2019-02-11T15:43:52.130Z,1013.35
2019-02-11T15:45:45.596Z,1013.28
2019-02-11T15:46:45.610Z,1013.40
2019-02-11T15:48:43.066Z,1013.44
2019-02-11T15:49:39.093Z,1013.48
2019-02-11T15:51:32.542Z,1013.51
2019-02-11T15:52:32.566Z,1013.56
2019-02-11T15:54:26.017Z,1013.57
2019-02-11T15:55:26.040Z,1013.60
2019-02-11T15:57:19.497Z,1013.68
2019-02-11T15:58:19.549Z,1013.71
2019-02-11T16:00:12.971Z,1013.92
2019-02-11T16:01:12.998Z,1013.85
2019-02-11T16:03:06.465Z,1013.88
2019-02-11T16:04:06.485Z,1013.92
2019-02-11T16:06:06.632Z,1013.97
2019-02-11T16:06:59.967Z,1013.94
2019-02-11T16:08:53.417Z,1014.02
2019-02-11T16:09:53.446Z,1013.99
2019-02-11T16:11:46.904Z,1014.03
2019-02-11T16:12:46.930Z,1014.08
2019-02-11T16:14:40.382Z,1014.13
2019-02-11T16:15:40.406Z,1013.99
2019-02-11T16:17:33.869Z,1014.24
2019-02-11T16:18:33.899Z,1014.25
2019-02-11T16:20:27.507Z,1014.24
2019-02-11T16:21:27.380Z,1014.32
2019-02-11T16:23:20.852Z,1014.39
2019-02-11T16:24:20.873Z,1014.47
2019-02-11T16:26:14.335Z,1014.49
2019-02-11T16:27:14.356Z,1014.59
2019-02-11T16:29:07.811Z,1014.61
2019-02-11T16:30:07.844Z,1014.51
2019-02-11T16:32:01.307Z,1014.59
2019-02-11T16:33:01.675Z,1014.65
2019-02-11T16:34:54.777Z,1014.67
2019-02-11T16:35:54.807Z,1014.68
2019-02-11T16:37:48.269Z,1014.71
2019-02-11T16:38:48.291Z,1014.79
2019-02-11T16:40:41.740Z,1014.83
2019-02-11T16:41:41.767Z,1014.86
2019-02-11T16:43:34.720Z,1014.99
2019-02-11T16:44:34.743Z,1014.98
2019-02-11T16:46:28.374Z,1015.06
2019-02-11T16:47:28.238Z,1015.19
2019-02-11T16:49:21.158Z,1015.24
2019-02-11T16:50:21.186Z,1015.27
2019-02-11T16:52:14.138Z,1015.28
2019-02-11T16:53:14.163Z,1015.39
2019-02-11T16:55:07.107Z,1015.42
2019-02-11T16:56:07.135Z,1015.42
2019-02-11T16:58:00.090Z,1015.45
2019-02-11T16:59:00.109Z,1015.41
2019-02-11T17:00:53.055Z,1015.63
2019-02-11T17:01:53.087Z,1015.62
2019-02-11T17:03:46.045Z,1015.76
2019-02-11T17:04:46.066Z,1015.84
2019-02-11T17:06:39.511Z,1015.89
2019-02-11T17:07:41.871Z,1015.92
2019-02-11T17:09:32.986Z,1016.04
2019-02-11T17:10:33.011Z,1016.06
2019-02-11T17:12:26.462Z,1016.05
2019-02-11T17:13:26.485Z,1016.09
2019-02-11T17:15:19.434Z,1016.12
2019-02-11T17:16:19.457Z,1016.11
2019-02-11T17:18:12.901Z,1016.19
2019-02-11T17:19:12.922Z,1016.23
2019-02-11T17:21:06.360Z,1016.31
2019-02-11T17:22:06.391Z,1016.30
2019-02-11T17:23:59.845Z,1016.35
2019-02-11T17:24:59.889Z,1016.41
2019-02-11T17:26:53.313Z,1016.44
2019-02-11T17:27:53.334Z,1016.42
2019-02-11T17:29:46.275Z,1016.40
2019-02-11T17:30:46.311Z,1016.45
2019-02-11T17:32:39.267Z,1016.51
2019-02-11T17:33:39.290Z,1016.52
2019-02-11T17:35:32.236Z,1016.64
2019-02-11T17:36:32.267Z,1016.65